sensor_id;sensor_type;location;lat;lon;timestamp;P1;durP1;ratioP1;P2;durP2;ratioP2
62610;SDS011;48683;48.084;17.272;2023-03-01T00:01:00;32.22;;;19.38;;
62610;SDS011;48683;48.084;17.272;2023-03-01T00:03:33;32.85;;;19.10;;
62610;SDS011;48683;48.084;17.272;2023-03-01T00:05:58;36.88;;;20.00;;
62610;SDS011;48683;48.084;17.272;2023-03-01T00:08:25;35.97;;;19.02;;
62610;SDS011;48683;48.084;17.272;2023-03-01T00:11:01;35.00;;;20.88;;
62610;SDS011;48683;48.084;17.272;2023-03-01T00:13:26;36.97;;;20.17;;
62610;SDS011;48683;48.084;17.272;2023-03-01T00:15:52;36.72;;;20.73;;
62610;SDS011;48683;48.084;17.272;2023-03-01T00:18:17;35.55;;;20.50;;
62610;SDS011;48683;48.084;17.272;2023-03-01T00:20:48;35.85;;;20.67;;
62610;SDS011;48683;48.084;17.272;2023-03-01T00:23:18;32.63;;;19.80;;
62610;SDS011;48683;48.084;17.272;2023-03-01T00:25:43;38.08;;;20.85;;
62610;SDS011;48683;48.084;17.272;2023-03-01T00:28:09;36.92;;;20.92;;
62610;SDS011;48683;48.084;17.272;2023-03-01T00:30:34;40.63;;;21.48;;
62610;SDS011;48683;48.084;17.272;2023-03-01T00:32:59;33.35;;;18.83;;
62610;SDS011;48683;48.084;17.272;2023-03-01T00:35:25;36.38;;;20.17;;
62610;SDS011;48683;48.084;17.272;2023-03-01T00:37:50;33.17;;;19.50;;
62610;SDS011;48683;48.084;17.272;2023-03-01T00:40:22;33.72;;;19.15;;
62610;SDS011;48683;48.084;17.272;2023-03-01T00:42:51;34.53;;;20.23;;
62610;SDS011;48683;48.084;17.272;2023-03-01T00:45:17;33.88;;;18.52;;
62610;SDS011;48683;48.084;17.272;2023-03-01T00:47:42;38.13;;;19.02;;
62610;SDS011;48683;48.084;17.272;2023-03-01T00:50:08;33.03;;;19.25;;
62610;SDS011;48683;48.084;17.272;2023-03-01T00:52:34;32.53;;;19.13;;
62610;SDS011;48683;48.084;17.272;2023-03-01T00:55:00;31.48;;;18.15;;
62610;SDS011;48683;48.084;17.272;2023-03-01T00:57:25;34.83;;;19.38;;
62610;SDS011;48683;48.084;17.272;2023-03-01T00:59:51;33.97;;;18.75;;
62610;SDS011;48683;48.084;17.272;2023-03-01T01:02:17;39.15;;;19.33;;
62610;SDS011;48683;48.084;17.272;2023-03-01T01:04:43;34.22;;;20.33;;
62610;SDS011;48683;48.084;17.272;2023-03-01T01:07:09;32.38;;;17.95;;
62610;SDS011;48683;48.084;17.272;2023-03-01T01:09:34;34.60;;;19.90;;
62610;SDS011;48683;48.084;17.272;2023-03-01T01:12:00;29.98;;;18.85;;
62610;SDS011;48683;48.084;17.272;2023-03-01T01:14:26;29.75;;;18.13;;
62610;SDS011;48683;48.084;17.272;2023-03-01T01:16:51;32.88;;;19.20;;
62610;SDS011;48683;48.084;17.272;2023-03-01T01:19:17;30.90;;;18.23;;
62610;SDS011;48683;48.084;17.272;2023-03-01T01:21:42;35.60;;;20.38;;
62610;SDS011;48683;48.084;17.272;2023-03-01T01:24:08;29.95;;;19.50;;
62610;SDS011;48683;48.084;17.272;2023-03-01T01:26:33;36.88;;;19.02;;
62610;SDS011;48683;48.084;17.272;2023-03-01T01:29:00;35.13;;;19.83;;
62610;SDS011;48683;48.084;17.272;2023-03-01T01:31:27;33.45;;;20.10;;
62610;SDS011;48683;48.084;17.272;2023-03-01T01:33:54;34.65;;;18.42;;
62610;SDS011;48683;48.084;17.272;2023-03-01T01:36:21;34.95;;;19.40;;
62610;SDS011;48683;48.084;17.272;2023-03-01T01:38:46;38.53;;;21.38;;
62610;SDS011;48683;48.084;17.272;2023-03-01T01:41:12;34.70;;;21.33;;
62610;SDS011;48683;48.084;17.272;2023-03-01T01:43:42;34.65;;;20.38;;
62610;SDS011;48683;48.084;17.272;2023-03-01T01:46:20;36.42;;;22.08;;
62610;SDS011;48683;48.084;17.272;2023-03-01T01:48:54;38.55;;;21.60;;
62610;SDS011;48683;48.084;17.272;2023-03-01T01:51:33;39.85;;;22.80;;
62610;SDS011;48683;48.084;17.272;2023-03-01T01:54:06;39.97;;;21.60;;
62610;SDS011;48683;48.084;17.272;2023-03-01T01:56:35;41.40;;;23.13;;
62610;SDS011;48683;48.084;17.272;2023-03-01T01:59:03;40.97;;;23.08;;
62610;SDS011;48683;48.084;17.272;2023-03-01T02:01:29;43.90;;;24.55;;
62610;SDS011;48683;48.084;17.272;2023-03-01T02:03:54;41.72;;;23.73;;
62610;SDS011;48683;48.084;17.272;2023-03-01T02:06:27;44.00;;;23.58;;
62610;SDS011;48683;48.084;17.272;2023-03-01T02:09:14;42.53;;;23.33;;
62610;SDS011;48683;48.084;17.272;2023-03-01T02:11:41;41.47;;;23.42;;
62610;SDS011;48683;48.084;17.272;2023-03-01T02:14:08;38.50;;;22.00;;
62610;SDS011;48683;48.084;17.272;2023-03-01T02:16:33;43.15;;;23.98;;
62610;SDS011;48683;48.084;17.272;2023-03-01T02:18:59;41.85;;;23.30;;
62610;SDS011;48683;48.084;17.272;2023-03-01T02:27:11;36.35;;;20.88;;
62610;SDS011;48683;48.084;17.272;2023-03-01T02:29:37;42.30;;;23.10;;
62610;SDS011;48683;48.084;17.272;2023-03-01T02:32:02;42.85;;;24.63;;
62610;SDS011;48683;48.084;17.272;2023-03-01T02:34:29;41.90;;;23.08;;
62610;SDS011;48683;48.084;17.272;2023-03-01T02:37:00;39.15;;;23.25;;
62610;SDS011;48683;48.084;17.272;2023-03-01T02:39:50;43.88;;;23.83;;
62610;SDS011;48683;48.084;17.272;2023-03-01T02:42:23;43.85;;;25.25;;
62610;SDS011;48683;48.084;17.272;2023-03-01T02:44:53;44.20;;;24.27;;
62610;SDS011;48683;48.084;17.272;2023-03-01T02:47:18;40.88;;;24.15;;
62610;SDS011;48683;48.084;17.272;2023-03-01T02:49:44;42.47;;;22.85;;
62610;SDS011;48683;48.084;17.272;2023-03-01T02:55:10;39.20;;;21.90;;
62610;SDS011;48683;48.084;17.272;2023-03-01T02:57:38;42.85;;;23.83;;
62610;SDS011;48683;48.084;17.272;2023-03-01T03:00:08;44.10;;;24.20;;
62610;SDS011;48683;48.084;17.272;2023-03-01T03:05:11;39.42;;;22.10;;
62610;SDS011;48683;48.084;17.272;2023-03-01T03:07:41;34.55;;;20.85;;
62610;SDS011;48683;48.084;17.272;2023-03-01T03:10:10;42.10;;;23.85;;
62610;SDS011;48683;48.084;17.272;2023-03-01T03:12:38;38.42;;;23.52;;
62610;SDS011;48683;48.084;17.272;2023-03-01T03:15:05;37.45;;;22.60;;
62610;SDS011;48683;48.084;17.272;2023-03-01T03:17:36;35.80;;;21.85;;
62610;SDS011;48683;48.084;17.272;2023-03-01T03:20:03;37.03;;;22.15;;
62610;SDS011;48683;48.084;17.272;2023-03-01T03:22:29;40.92;;;22.65;;
62610;SDS011;48683;48.084;17.272;2023-03-01T03:24:55;37.10;;;20.52;;
62610;SDS011;48683;48.084;17.272;2023-03-01T03:27:20;36.47;;;20.77;;
62610;SDS011;48683;48.084;17.272;2023-03-01T03:29:46;37.05;;;21.58;;
62610;SDS011;48683;48.084;17.272;2023-03-01T03:32:11;37.78;;;21.98;;
62610;SDS011;48683;48.084;17.272;2023-03-01T03:34:36;35.88;;;21.40;;
62610;SDS011;48683;48.084;17.272;2023-03-01T03:37:02;38.03;;;21.50;;
62610;SDS011;48683;48.084;17.272;2023-03-01T03:39:27;36.13;;;21.35;;
62610;SDS011;48683;48.084;17.272;2023-03-01T03:41:54;38.97;;;20.58;;
62610;SDS011;48683;48.084;17.272;2023-03-01T03:44:20;36.75;;;20.85;;
62610;SDS011;48683;48.084;17.272;2023-03-01T03:46:46;33.63;;;21.27;;
62610;SDS011;48683;48.084;17.272;2023-03-01T03:49:11;36.70;;;20.92;;
62610;SDS011;48683;48.084;17.272;2023-03-01T03:51:36;36.33;;;21.33;;
62610;SDS011;48683;48.084;17.272;2023-03-01T03:54:02;34.88;;;20.40;;
62610;SDS011;48683;48.084;17.272;2023-03-01T03:56:27;37.15;;;20.73;;
62610;SDS011;48683;48.084;17.272;2023-03-01T03:58:52;32.40;;;19.65;;
62610;SDS011;48683;48.084;17.272;2023-03-01T04:01:18;34.63;;;20.48;;
62610;SDS011;48683;48.084;17.272;2023-03-01T04:03:43;36.42;;;20.35;;
62610;SDS011;48683;48.084;17.272;2023-03-01T04:06:11;35.13;;;20.17;;
62610;SDS011;48683;48.084;17.272;2023-03-01T04:08:37;34.97;;;20.67;;
62610;SDS011;48683;48.084;17.272;2023-03-01T04:11:03;33.33;;;19.02;;
62610;SDS011;48683;48.084;17.272;2023-03-01T04:13:50;32.38;;;17.95;;
62610;SDS011;48683;48.084;17.272;2023-03-01T04:16:16;30.92;;;19.83;;
62610;SDS011;48683;48.084;17.272;2023-03-01T04:18:42;36.30;;;20.67;;
62610;SDS011;48683;48.084;17.272;2023-03-01T04:21:08;30.45;;;18.52;;
62610;SDS011;48683;48.084;17.272;2023-03-01T04:23:34;34.50;;;19.92;;
62610;SDS011;48683;48.084;17.272;2023-03-01T04:26:00;33.63;;;19.20;;
62610;SDS011;48683;48.084;17.272;2023-03-01T04:30:55;37.85;;;21.15;;
62610;SDS011;48683;48.084;17.272;2023-03-01T04:33:23;33.50;;;19.75;;
62610;SDS011;48683;48.084;17.272;2023-03-01T04:35:49;35.17;;;19.80;;
62610;SDS011;48683;48.084;17.272;2023-03-01T04:38:15;34.88;;;19.52;;
62610;SDS011;48683;48.084;17.272;2023-03-01T04:40:41;35.07;;;20.03;;
62610;SDS011;48683;48.084;17.272;2023-03-01T04:43:08;35.33;;;20.73;;
62610;SDS011;48683;48.084;17.272;2023-03-01T04:45:34;31.73;;;19.83;;
62610;SDS011;48683;48.084;17.272;2023-03-01T04:47:59;30.58;;;18.55;;
62610;SDS011;48683;48.084;17.272;2023-03-01T04:50:25;32.88;;;18.73;;
62610;SDS011;48683;48.084;17.272;2023-03-01T04:52:51;33.00;;;18.30;;
62610;SDS011;48683;48.084;17.272;2023-03-01T04:55:17;30.73;;;19.00;;
62610;SDS011;48683;48.084;17.272;2023-03-01T04:57:43;32.05;;;18.33;;
62610;SDS011;48683;48.084;17.272;2023-03-01T05:00:10;32.47;;;19.48;;
62610;SDS011;48683;48.084;17.272;2023-03-01T05:02:47;30.23;;;18.67;;
62610;SDS011;48683;48.084;17.272;2023-03-01T05:05:14;34.63;;;19.60;;
62610;SDS011;48683;48.084;17.272;2023-03-01T05:07:40;29.95;;;17.50;;
62610;SDS011;48683;48.084;17.272;2023-03-01T05:10:05;31.65;;;18.83;;
62610;SDS011;48683;48.084;17.272;2023-03-01T05:12:31;32.80;;;19.27;;
62610;SDS011;48683;48.084;17.272;2023-03-01T05:14:56;31.67;;;19.40;;
62610;SDS011;48683;48.084;17.272;2023-03-01T05:17:23;31.35;;;19.05;;
62610;SDS011;48683;48.084;17.272;2023-03-01T05:19:49;32.53;;;19.55;;
62610;SDS011;48683;48.084;17.272;2023-03-01T05:22:14;32.08;;;18.40;;
62610;SDS011;48683;48.084;17.272;2023-03-01T05:24:40;33.00;;;18.75;;
62610;SDS011;48683;48.084;17.272;2023-03-01T05:27:05;33.42;;;18.38;;
62610;SDS011;48683;48.084;17.272;2023-03-01T05:29:31;30.58;;;18.30;;
62610;SDS011;48683;48.084;17.272;2023-03-01T05:32:00;34.55;;;19.08;;
62610;SDS011;48683;48.084;17.272;2023-03-01T05:34:27;31.08;;;18.23;;
62610;SDS011;48683;48.084;17.272;2023-03-01T05:36:57;29.73;;;18.00;;
62610;SDS011;48683;48.084;17.272;2023-03-01T05:39:25;31.33;;;18.05;;
62610;SDS011;48683;48.084;17.272;2023-03-01T05:41:58;27.70;;;17.45;;
62610;SDS011;48683;48.084;17.272;2023-03-01T05:44:26;34.08;;;19.65;;
62610;SDS011;48683;48.084;17.272;2023-03-01T05:46:52;30.65;;;17.77;;
62610;SDS011;48683;48.084;17.272;2023-03-01T05:49:18;32.72;;;18.20;;
62610;SDS011;48683;48.084;17.272;2023-03-01T05:51:47;31.67;;;17.67;;
62610;SDS011;48683;48.084;17.272;2023-03-01T05:54:14;33.72;;;18.75;;
62610;SDS011;48683;48.084;17.272;2023-03-01T05:56:40;31.85;;;19.08;;
62610;SDS011;48683;48.084;17.272;2023-03-01T05:59:05;32.63;;;17.83;;
62610;SDS011;48683;48.084;17.272;2023-03-01T06:01:31;32.25;;;18.75;;
62610;SDS011;48683;48.084;17.272;2023-03-01T06:03:57;34.93;;;18.50;;
62610;SDS011;48683;48.084;17.272;2023-03-01T06:06:23;31.08;;;18.85;;
62610;SDS011;48683;48.084;17.272;2023-03-01T06:08:49;37.28;;;19.33;;
62610;SDS011;48683;48.084;17.272;2023-03-01T06:11:15;34.65;;;19.63;;
62610;SDS011;48683;48.084;17.272;2023-03-01T06:13:41;31.38;;;18.33;;
62610;SDS011;48683;48.084;17.272;2023-03-01T06:16:07;32.22;;;19.10;;
62610;SDS011;48683;48.084;17.272;2023-03-01T06:18:33;34.95;;;19.65;;
62610;SDS011;48683;48.084;17.272;2023-03-01T06:20:58;33.13;;;19.80;;
62610;SDS011;48683;48.084;17.272;2023-03-01T06:23:24;36.50;;;19.63;;
62610;SDS011;48683;48.084;17.272;2023-03-01T06:25:49;35.53;;;19.27;;
62610;SDS011;48683;48.084;17.272;2023-03-01T06:28:15;31.98;;;18.67;;
62610;SDS011;48683;48.084;17.272;2023-03-01T06:30:40;28.45;;;17.35;;
62610;SDS011;48683;48.084;17.272;2023-03-01T06:33:05;35.97;;;20.02;;
62610;SDS011;48683;48.084;17.272;2023-03-01T06:35:31;33.72;;;18.33;;
62610;SDS011;48683;48.084;17.272;2023-03-01T06:37:57;38.28;;;20.40;;
62610;SDS011;48683;48.084;17.272;2023-03-01T06:40:24;32.85;;;18.45;;
62610;SDS011;48683;48.084;17.272;2023-03-01T06:42:49;30.52;;;17.17;;
62610;SDS011;48683;48.084;17.272;2023-03-01T06:45:16;30.63;;;17.38;;
62610;SDS011;48683;48.084;17.272;2023-03-01T06:50:08;32.50;;;18.57;;
62610;SDS011;48683;48.084;17.272;2023-03-01T06:52:34;31.83;;;18.98;;
62610;SDS011;48683;48.084;17.272;2023-03-01T06:54:59;30.20;;;18.77;;
62610;SDS011;48683;48.084;17.272;2023-03-01T06:57:25;31.17;;;18.30;;
62610;SDS011;48683;48.084;17.272;2023-03-01T06:59:50;31.80;;;18.45;;
62610;SDS011;48683;48.084;17.272;2023-03-01T07:02:16;35.13;;;18.40;;
62610;SDS011;48683;48.084;17.272;2023-03-01T07:04:42;26.58;;;17.67;;
62610;SDS011;48683;48.084;17.272;2023-03-01T07:07:07;33.10;;;17.92;;
62610;SDS011;48683;48.084;17.272;2023-03-01T07:09:33;31.45;;;18.08;;
62610;SDS011;48683;48.084;17.272;2023-03-01T07:11:59;31.52;;;18.40;;
62610;SDS011;48683;48.084;17.272;2023-03-01T07:14:24;29.77;;;18.25;;
62610;SDS011;48683;48.084;17.272;2023-03-01T07:16:51;32.88;;;18.58;;
62610;SDS011;48683;48.084;17.272;2023-03-01T07:19:17;28.02;;;17.55;;
62610;SDS011;48683;48.084;17.272;2023-03-01T07:21:43;32.47;;;18.53;;
62610;SDS011;48683;48.084;17.272;2023-03-01T07:24:08;30.50;;;18.05;;
62610;SDS011;48683;48.084;17.272;2023-03-01T07:26:34;30.65;;;18.40;;
62610;SDS011;48683;48.084;17.272;2023-03-01T07:29:01;30.95;;;18.67;;
62610;SDS011;48683;48.084;17.272;2023-03-01T07:31:27;29.70;;;17.83;;
62610;SDS011;48683;48.084;17.272;2023-03-01T07:33:53;31.77;;;19.38;;
62610;SDS011;48683;48.084;17.272;2023-03-01T07:36:19;28.25;;;18.25;;
62610;SDS011;48683;48.084;17.272;2023-03-01T07:38:45;33.30;;;18.65;;
62610;SDS011;48683;48.084;17.272;2023-03-01T07:41:11;32.83;;;20.02;;
62610;SDS011;48683;48.084;17.272;2023-03-01T07:43:36;32.03;;;19.02;;
62610;SDS011;48683;48.084;17.272;2023-03-01T07:46:02;30.30;;;18.33;;
62610;SDS011;48683;48.084;17.272;2023-03-01T07:48:28;34.88;;;19.15;;
62610;SDS011;48683;48.084;17.272;2023-03-01T07:50:57;31.45;;;18.73;;
62610;SDS011;48683;48.084;17.272;2023-03-01T07:53:24;32.25;;;18.20;;
62610;SDS011;48683;48.084;17.272;2023-03-01T07:55:49;29.52;;;18.73;;
62610;SDS011;48683;48.084;17.272;2023-03-01T07:58:14;31.60;;;18.15;;
62610;SDS011;48683;48.084;17.272;2023-03-01T08:00:40;27.45;;;18.05;;
62610;SDS011;48683;48.084;17.272;2023-03-01T08:03:05;30.80;;;18.17;;
62610;SDS011;48683;48.084;17.272;2023-03-01T08:05:30;34.63;;;19.30;;
62610;SDS011;48683;48.084;17.272;2023-03-01T08:07:57;27.97;;;17.17;;
62610;SDS011;48683;48.084;17.272;2023-03-01T08:10:22;32.38;;;18.83;;
62610;SDS011;48683;48.084;17.272;2023-03-01T08:12:47;31.17;;;18.83;;
62610;SDS011;48683;48.084;17.272;2023-03-01T08:15:15;30.02;;;18.00;;
62610;SDS011;48683;48.084;17.272;2023-03-01T08:17:41;30.35;;;17.73;;
62610;SDS011;48683;48.084;17.272;2023-03-01T08:20:06;29.73;;;18.25;;
62610;SDS011;48683;48.084;17.272;2023-03-01T08:22:32;30.07;;;17.80;;
62610;SDS011;48683;48.084;17.272;2023-03-01T08:24:58;29.95;;;16.60;;
62610;SDS011;48683;48.084;17.272;2023-03-01T08:27:23;34.50;;;17.65;;
62610;SDS011;48683;48.084;17.272;2023-03-01T08:29:48;27.58;;;17.88;;
62610;SDS011;48683;48.084;17.272;2023-03-01T08:32:14;28.77;;;18.25;;
62610;SDS011;48683;48.084;17.272;2023-03-01T08:34:39;32.97;;;17.88;;
62610;SDS011;48683;48.084;17.272;2023-03-01T08:37:04;29.25;;;18.17;;
62610;SDS011;48683;48.084;17.272;2023-03-01T08:39:30;30.15;;;17.15;;
62610;SDS011;48683;48.084;17.272;2023-03-01T08:41:55;26.63;;;17.00;;
62610;SDS011;48683;48.084;17.272;2023-03-01T08:44:21;26.77;;;17.02;;
62610;SDS011;48683;48.084;17.272;2023-03-01T08:46:47;28.33;;;17.67;;
62610;SDS011;48683;48.084;17.272;2023-03-01T08:49:15;28.23;;;17.65;;
62610;SDS011;48683;48.084;17.272;2023-03-01T08:51:43;29.45;;;17.98;;
62610;SDS011;48683;48.084;17.272;2023-03-01T08:54:13;29.25;;;17.67;;
62610;SDS011;48683;48.084;17.272;2023-03-01T08:56:43;30.23;;;17.38;;
62610;SDS011;48683;48.084;17.272;2023-03-01T08:59:09;25.45;;;16.08;;
62610;SDS011;48683;48.084;17.272;2023-03-01T09:01:35;24.15;;;15.50;;
62610;SDS011;48683;48.084;17.272;2023-03-01T09:04:02;26.52;;;16.85;;
62610;SDS011;48683;48.084;17.272;2023-03-01T09:06:29;31.20;;;17.38;;
62610;SDS011;48683;48.084;17.272;2023-03-01T09:08:55;28.98;;;16.73;;
62610;SDS011;48683;48.084;17.272;2023-03-01T09:11:21;27.38;;;16.58;;
62610;SDS011;48683;48.084;17.272;2023-03-01T09:13:47;28.10;;;16.48;;
62610;SDS011;48683;48.084;17.272;2023-03-01T09:16:16;25.25;;;15.52;;
62610;SDS011;48683;48.084;17.272;2023-03-01T09:18:43;25.40;;;15.20;;
62610;SDS011;48683;48.084;17.272;2023-03-01T09:21:13;23.42;;;15.57;;
62610;SDS011;48683;48.084;17.272;2023-03-01T09:23:44;24.00;;;14.65;;
62610;SDS011;48683;48.084;17.272;2023-03-01T09:26:12;24.30;;;15.75;;
62610;SDS011;48683;48.084;17.272;2023-03-01T09:28:39;24.13;;;15.27;;
62610;SDS011;48683;48.084;17.272;2023-03-01T09:31:09;22.90;;;15.10;;
62610;SDS011;48683;48.084;17.272;2023-03-01T09:33:37;23.88;;;14.32;;
62610;SDS011;48683;48.084;17.272;2023-03-01T09:36:05;20.83;;;13.43;;
62610;SDS011;48683;48.084;17.272;2023-03-01T09:38:32;22.15;;;14.73;;
62610;SDS011;48683;48.084;17.272;2023-03-01T09:40:58;21.00;;;14.05;;
62610;SDS011;48683;48.084;17.272;2023-03-01T09:45:54;18.52;;;12.68;;
62610;SDS011;48683;48.084;17.272;2023-03-01T09:48:24;18.17;;;12.32;;
62610;SDS011;48683;48.084;17.272;2023-03-01T09:50:52;24.55;;;14.40;;
62610;SDS011;48683;48.084;17.272;2023-03-01T09:53:18;20.65;;;14.18;;
62610;SDS011;48683;48.084;17.272;2023-03-01T09:55:57;19.88;;;13.55;;
62610;SDS011;48683;48.084;17.272;2023-03-01T09:58:37;20.88;;;12.90;;
62610;SDS011;48683;48.084;17.272;2023-03-01T10:01:27;20.15;;;13.10;;
62610;SDS011;48683;48.084;17.272;2023-03-01T10:09:26;22.00;;;14.27;;
62610;SDS011;48683;48.084;17.272;2023-03-01T10:11:55;24.33;;;14.18;;
62610;SDS011;48683;48.084;17.272;2023-03-01T10:14:28;17.80;;;12.93;;
62610;SDS011;48683;48.084;17.272;2023-03-01T10:17:02;19.42;;;13.13;;
62610;SDS011;48683;48.084;17.272;2023-03-01T10:19:31;18.83;;;12.60;;
62610;SDS011;48683;48.084;17.272;2023-03-01T10:24:53;19.92;;;11.52;;
62610;SDS011;48683;48.084;17.272;2023-03-01T10:27:22;16.30;;;11.60;;
62610;SDS011;48683;48.084;17.272;2023-03-01T10:29:54;16.67;;;12.60;;
62610;SDS011;48683;48.084;17.272;2023-03-01T10:32:28;18.58;;;12.88;;
62610;SDS011;48683;48.084;17.272;2023-03-01T10:34:53;17.85;;;12.93;;
62610;SDS011;48683;48.084;17.272;2023-03-01T10:37:20;21.35;;;13.93;;
62610;SDS011;48683;48.084;17.272;2023-03-01T10:42:45;19.35;;;13.05;;
62610;SDS011;48683;48.084;17.272;2023-03-01T10:45:27;19.98;;;13.65;;
62610;SDS011;48683;48.084;17.272;2023-03-01T10:48:14;20.70;;;12.95;;
62610;SDS011;48683;48.084;17.272;2023-03-01T10:50:44;18.75;;;12.85;;
62610;SDS011;48683;48.084;17.272;2023-03-01T10:53:28;19.50;;;12.23;;
62610;SDS011;48683;48.084;17.272;2023-03-01T10:56:06;18.85;;;11.50;;
62610;SDS011;48683;48.084;17.272;2023-03-01T10:58:38;20.90;;;12.63;;
62610;SDS011;48683;48.084;17.272;2023-03-01T11:01:08;16.15;;;12.48;;
62610;SDS011;48683;48.084;17.272;2023-03-01T11:04:24;17.95;;;12.55;;
62610;SDS011;48683;48.084;17.272;2023-03-01T11:06:42;18.85;;;12.95;;
62610;SDS011;48683;48.084;17.272;2023-03-01T11:09:18;18.13;;;12.82;;
62610;SDS011;48683;48.084;17.272;2023-03-01T11:11:46;18.60;;;12.02;;
62610;SDS011;48683;48.084;17.272;2023-03-01T11:14:17;17.95;;;11.52;;
62610;SDS011;48683;48.084;17.272;2023-03-01T11:16:47;20.55;;;12.68;;
62610;SDS011;48683;48.084;17.272;2023-03-01T11:19:15;18.98;;;12.27;;
62610;SDS011;48683;48.084;17.272;2023-03-01T11:24:09;17.38;;;12.00;;
62610;SDS011;48683;48.084;17.272;2023-03-01T11:26:39;20.55;;;12.75;;
62610;SDS011;48683;48.084;17.272;2023-03-01T11:29:11;19.17;;;12.50;;
62610;SDS011;48683;48.084;17.272;2023-03-01T11:31:47;14.70;;;11.73;;
62610;SDS011;48683;48.084;17.272;2023-03-01T11:34:15;16.35;;;11.50;;
62610;SDS011;48683;48.084;17.272;2023-03-01T11:36:52;16.33;;;11.30;;
62610;SDS011;48683;48.084;17.272;2023-03-01T11:39:31;16.80;;;10.80;;
62610;SDS011;48683;48.084;17.272;2023-03-01T11:44:39;17.58;;;12.25;;
62610;SDS011;48683;48.084;17.272;2023-03-01T11:49:52;20.02;;;12.63;;
62610;SDS011;48683;48.084;17.272;2023-03-01T12:07:00;16.98;;;12.00;;
62610;SDS011;48683;48.084;17.272;2023-03-01T12:24:13;18.42;;;11.90;;
62610;SDS011;48683;48.084;17.272;2023-03-01T12:29:42;18.20;;;12.05;;
62610;SDS011;48683;48.084;17.272;2023-03-01T12:32:15;14.88;;;10.50;;
62610;SDS011;48683;48.084;17.272;2023-03-01T12:40:46;15.25;;;10.52;;
62610;SDS011;48683;48.084;17.272;2023-03-01T12:49:19;13.40;;;9.75;;
62610;SDS011;48683;48.084;17.272;2023-03-01T12:52:14;13.23;;;9.10;;
62610;SDS011;48683;48.084;17.272;2023-03-01T12:54:48;13.45;;;10.00;;
62610;SDS011;48683;48.084;17.272;2023-03-01T12:57:21;13.20;;;9.75;;
62610;SDS011;48683;48.084;17.272;2023-03-01T13:02:58;11.57;;;9.30;;
62610;SDS011;48683;48.084;17.272;2023-03-01T13:05:42;11.85;;;8.93;;
62610;SDS011;48683;48.084;17.272;2023-03-01T13:11:18;13.80;;;8.73;;
62610;SDS011;48683;48.084;17.272;2023-03-01T13:13:46;13.25;;;9.77;;
62610;SDS011;48683;48.084;17.272;2023-03-01T13:19:15;14.15;;;9.35;;
62610;SDS011;48683;48.084;17.272;2023-03-01T13:21:43;13.80;;;9.70;;
62610;SDS011;48683;48.084;17.272;2023-03-01T13:24:29;13.05;;;9.43;;
62610;SDS011;48683;48.084;17.272;2023-03-01T13:32:21;14.23;;;9.65;;
62610;SDS011;48683;48.084;17.272;2023-03-01T13:34:57;13.55;;;10.32;;
62610;SDS011;48683;48.084;17.272;2023-03-01T13:37:25;13.27;;;9.70;;
62610;SDS011;48683;48.084;17.272;2023-03-01T13:39:54;14.55;;;9.93;;
62610;SDS011;48683;48.084;17.272;2023-03-01T13:42:39;13.20;;;9.95;;
62610;SDS011;48683;48.084;17.272;2023-03-01T13:45:16;14.52;;;9.50;;
62610;SDS011;48683;48.084;17.272;2023-03-01T13:48:43;11.98;;;8.95;;
62610;SDS011;48683;48.084;17.272;2023-03-01T13:51:01;14.65;;;9.23;;
62610;SDS011;48683;48.084;17.272;2023-03-01T13:53:33;15.98;;;11.20;;
62610;SDS011;48683;48.084;17.272;2023-03-01T13:56:09;14.20;;;10.52;;
62610;SDS011;48683;48.084;17.272;2023-03-01T13:58:44;19.20;;;10.70;;
62610;SDS011;48683;48.084;17.272;2023-03-01T14:01:20;15.70;;;11.18;;
62610;SDS011;48683;48.084;17.272;2023-03-01T14:03:48;14.50;;;10.20;;
62610;SDS011;48683;48.084;17.272;2023-03-01T14:06:18;14.77;;;10.95;;
62610;SDS011;48683;48.084;17.272;2023-03-01T14:08:46;17.50;;;11.82;;
62610;SDS011;48683;48.084;17.272;2023-03-01T14:14:07;14.35;;;10.57;;
62610;SDS011;48683;48.084;17.272;2023-03-01T14:19:31;14.15;;;10.60;;
62610;SDS011;48683;48.084;17.272;2023-03-01T14:22:04;16.23;;;10.70;;
62610;SDS011;48683;48.084;17.272;2023-03-01T14:24:44;18.80;;;11.50;;
62610;SDS011;48683;48.084;17.272;2023-03-01T14:27:14;23.40;;;10.90;;
62610;SDS011;48683;48.084;17.272;2023-03-01T14:29:40;15.63;;;10.75;;
62610;SDS011;48683;48.084;17.272;2023-03-01T14:32:12;13.50;;;10.63;;
62610;SDS011;48683;48.084;17.272;2023-03-01T14:37:28;15.73;;;10.87;;
62610;SDS011;48683;48.084;17.272;2023-03-01T14:39:56;17.30;;;11.60;;
62610;SDS011;48683;48.084;17.272;2023-03-01T14:42:24;15.90;;;11.68;;
62610;SDS011;48683;48.084;17.272;2023-03-01T14:44:53;14.55;;;10.55;;
62610;SDS011;48683;48.084;17.272;2023-03-01T14:49:53;15.10;;;10.48;;
62610;SDS011;48683;48.084;17.272;2023-03-01T14:52:25;16.30;;;10.95;;
62610;SDS011;48683;48.084;17.272;2023-03-01T14:54:59;16.90;;;10.35;;
62610;SDS011;48683;48.084;17.272;2023-03-01T14:57:25;17.85;;;10.65;;
62610;SDS011;48683;48.084;17.272;2023-03-01T14:59:52;13.82;;;9.82;;
62610;SDS011;48683;48.084;17.272;2023-03-01T15:02:21;14.40;;;10.82;;
62610;SDS011;48683;48.084;17.272;2023-03-01T15:04:49;15.18;;;9.95;;
62610;SDS011;48683;48.084;17.272;2023-03-01T15:07:17;15.75;;;10.95;;
62610;SDS011;48683;48.084;17.272;2023-03-01T15:09:44;14.93;;;10.93;;
62610;SDS011;48683;48.084;17.272;2023-03-01T15:12:52;17.25;;;10.80;;
62610;SDS011;48683;48.084;17.272;2023-03-01T15:15:18;13.57;;;10.35;;
62610;SDS011;48683;48.084;17.272;2023-03-01T15:17:48;18.45;;;10.95;;
62610;SDS011;48683;48.084;17.272;2023-03-01T15:20:18;15.25;;;10.32;;
62610;SDS011;48683;48.084;17.272;2023-03-01T15:22:46;17.75;;;10.63;;
62610;SDS011;48683;48.084;17.272;2023-03-01T15:25:20;15.90;;;11.18;;
62610;SDS011;48683;48.084;17.272;2023-03-01T15:27:48;14.90;;;9.93;;
62610;SDS011;48683;48.084;17.272;2023-03-01T15:30:34;15.48;;;10.30;;
62610;SDS011;48683;48.084;17.272;2023-03-01T15:35:57;14.27;;;8.68;;
62610;SDS011;48683;48.084;17.272;2023-03-01T15:38:49;13.82;;;9.73;;
62610;SDS011;48683;48.084;17.272;2023-03-01T15:41:23;13.85;;;9.73;;
62610;SDS011;48683;48.084;17.272;2023-03-01T15:43:50;16.27;;;9.15;;
62610;SDS011;48683;48.084;17.272;2023-03-01T15:46:26;10.38;;;7.78;;
62610;SDS011;48683;48.084;17.272;2023-03-01T15:48:53;11.93;;;8.10;;
62610;SDS011;48683;48.084;17.272;2023-03-01T15:51:34;13.38;;;9.07;;
62610;SDS011;48683;48.084;17.272;2023-03-01T15:54:02;12.77;;;8.55;;
62610;SDS011;48683;48.084;17.272;2023-03-01T15:56:30;14.27;;;8.68;;
62610;SDS011;48683;48.084;17.272;2023-03-01T15:58:59;14.82;;;9.00;;
62610;SDS011;48683;48.084;17.272;2023-03-01T16:01:27;11.32;;;8.90;;
62610;SDS011;48683;48.084;17.272;2023-03-01T16:03:52;13.80;;;9.65;;
62610;SDS011;48683;48.084;17.272;2023-03-01T16:06:18;15.60;;;10.30;;
62610;SDS011;48683;48.084;17.272;2023-03-01T16:08:44;17.80;;;9.70;;
62610;SDS011;48683;48.084;17.272;2023-03-01T16:11:11;17.27;;;9.50;;